sensor_id;sensor_type;location;lat;lon;timestamp;pressure;altitude;pressure_sealevel;temperature;humidity
56668;BME280;42542;48.360;10.958;2022-11-28T00:00:21;96172.03;;;1.26;100.00
56668;BME280;42542;48.360;10.958;2022-11-28T00:03:22;96164.13;;;1.26;100.00
56668;BME280;42542;48.360;10.958;2022-11-28T00:06:26;96164.13;;;1.26;100.00
56668;BME280;42542;48.360;10.958;2022-11-28T00:09:28;96168.44;;;1.27;100.00
56668;BME280;42542;48.360;10.958;2022-11-28T00:12:29;96148.53;;;1.23;100.00
56668;BME280;42542;48.360;10.958;2022-11-28T00:15:31;96138.97;;;1.22;100.00
56668;BME280;42542;48.360;10.958;2022-11-28T00:18:33;96125.59;;;1.12;100.00
56668;BME280;42542;48.360;10.958;2022-11-28T00:21:35;96142.75;;;1.17;100.00
56668;BME280;42542;48.360;10.958;2022-11-28T00:24:38;96143.09;;;1.13;100.00
56668;BME280;42542;48.360;10.958;2022-11-28T00:27:41;96136.31;;;1.09;100.00
56668;BME280;42542;48.360;10.958;2022-11-28T00:30:42;96135.38;;;1.10;100.00
56668;BME280;42542;48.360;10.958;2022-11-28T00:33:44;96126.66;;;1.09;100.00
56668;BME280;42542;48.360;10.958;2022-11-28T00:36:46;96118.13;;;1.06;100.00
56668;BME280;42542;48.360;10.958;2022-11-28T00:39:48;96120.03;;;1.04;100.00
56668;BME280;42542;48.360;10.958;2022-11-28T00:42:49;96113.31;;;1.00;100.00
56668;BME280;42542;48.360;10.958;2022-11-28T00:45:51;96121.81;;;1.03;100.00
56668;BME280;42542;48.360;10.958;2022-11-28T00:48:52;96124.53;;;1.02;100.00
56668;BME280;42542;48.360;10.958;2022-11-28T00:51:54;96123.50;;;1.04;100.00
56668;BME280;42542;48.360;10.958;2022-11-28T00:54:56;96119.19;;;1.03;100.00
56668;BME280;42542;48.360;10.958;2022-11-28T00:57:57;96130.56;;;1.04;100.00
56668;BME280;42542;48.360;10.958;2022-11-28T01:00:59;96119.28;;;1.02;100.00
56668;BME280;42542;48.360;10.958;2022-11-28T01:04:04;96124.53;;;1.02;100.00
56668;BME280;42542;48.360;10.958;2022-11-28T01:07:06;96131.28;;;1.06;100.00
56668;BME280;42542;48.360;10.958;2022-11-28T01:10:10;96124.97;;;1.08;100.00
56668;BME280;42542;48.360;10.958;2022-11-28T01:13:11;96130.13;;;1.10;100.00
56668;BME280;42542;48.360;10.958;2022-11-28T01:16:13;96115.16;;;1.10;100.00
56668;BME280;42542;48.360;10.958;2022-11-28T01:19:16;96113.47;;;1.09;100.00
56668;BME280;42542;48.360;10.958;2022-11-28T01:22:18;96130.97;;;1.10;100.00
56668;BME280;42542;48.360;10.958;2022-11-28T01:25:19;96119.41;;;1.13;100.00
56668;BME280;42542;48.360;10.958;2022-11-28T01:28:21;96113.19;;;1.14;100.00
56668;BME280;42542;48.360;10.958;2022-11-28T01:31:25;96101.81;;;1.13;100.00
56668;BME280;42542;48.360;10.958;2022-11-28T01:34:27;96089.59;;;1.12;100.00
56668;BME280;42542;48.360;10.958;2022-11-28T01:37:29;96093.06;;;1.13;100.00
56668;BME280;42542;48.360;10.958;2022-11-28T01:40:31;96090.44;;;1.13;100.00
56668;BME280;42542;48.360;10.958;2022-11-28T01:43:33;96087.06;;;1.11;100.00
56668;BME280;42542;48.360;10.958;2022-11-28T01:46:35;96094.13;;;1.10;100.00
56668;BME280;42542;48.360;10.958;2022-11-28T01:49:37;96088.84;;;1.10;100.00
56668;BME280;42542;48.360;10.958;2022-11-28T01:52:40;96082.75;;;1.10;100.00
56668;BME280;42542;48.360;10.958;2022-11-28T01:55:51;96091.19;;;1.15;100.00
56668;BME280;42542;48.360;10.958;2022-11-28T01:58:59;96092.00;;;1.15;100.00
56668;BME280;42542;48.360;10.958;2022-11-28T02:02:07;96080.84;;;1.12;100.00
56668;BME280;42542;48.360;10.958;2022-11-28T02:05:10;96080.94;;;1.10;100.00
56668;BME280;42542;48.360;10.958;2022-11-28T02:08:11;96077.56;;;1.08;100.00
56668;BME280;42542;48.360;10.958;2022-11-28T02:11:34;96090.75;;;1.08;100.00
56668;BME280;42542;48.360;10.958;2022-11-28T02:18:10;96020.59;;;1.20;100.00
56668;BME280;42542;48.360;10.958;2022-11-28T02:21:36;96080.75;;;1.13;100.00
56668;BME280;42542;48.360;10.958;2022-11-28T02:29:02;96063.16;;;1.14;100.00
56668;BME280;42542;48.360;10.958;2022-11-28T02:32:45;96060.53;;;1.14;100.00
56668;BME280;42542;48.360;10.958;2022-11-28T02:35:56;96047.69;;;1.09;100.00
56668;BME280;42542;48.360;10.958;2022-11-28T02:42:27;96052.00;;;1.10;100.00
56668;BME280;42542;48.360;10.958;2022-11-28T02:45:54;96064.13;;;1.13;100.00
56668;BME280;42542;48.360;10.958;2022-11-28T02:49:03;96020.97;;;1.03;100.00
56668;BME280;42542;48.360;10.958;2022-11-28T02:52:40;96022.19;;;1.10;100.00
56668;BME280;42542;48.360;10.958;2022-11-28T02:55:44;95994.88;;;1.00;100.00
56668;BME280;42542;48.360;10.958;2022-11-28T02:58:46;95991.06;;;1.04;100.00
56668;BME280;42542;48.360;10.958;2022-11-28T03:01:47;95998.84;;;1.05;100.00
56668;BME280;42542;48.360;10.958;2022-11-28T03:14:58;95997.22;;;1.15;100.00
56668;BME280;42542;48.360;10.958;2022-11-28T03:18:08;95983.84;;;1.18;100.00
56668;BME280;42542;48.360;10.958;2022-11-28T03:27:53;95963.84;;;1.16;100.00
56668;BME280;42542;48.360;10.958;2022-11-28T03:31:03;95968.06;;;1.18;100.00
56668;BME280;42542;48.360;10.958;2022-11-28T03:34:11;95970.47;;;1.22;100.00
56668;BME280;42542;48.360;10.958;2022-11-28T03:37:20;95957.44;;;1.20;100.00
56668;BME280;42542;48.360;10.958;2022-11-28T03:40:30;95934.69;;;1.19;100.00
56668;BME280;42542;48.360;10.958;2022-11-28T03:43:39;95925.94;;;1.18;100.00
56668;BME280;42542;48.360;10.958;2022-11-28T03:46:45;95917.94;;;1.20;100.00
56668;BME280;42542;48.360;10.958;2022-11-28T03:49:50;95908.25;;;1.21;100.00
56668;BME280;42542;48.360;10.958;2022-11-28T03:53:06;95942.38;;;1.22;100.00
56668;BME280;42542;48.360;10.958;2022-11-28T03:56:23;96015.09;;;1.23;100.00
56668;BME280;42542;48.360;10.958;2022-11-28T03:59:56;96017.63;;;1.25;100.00
56668;BME280;42542;48.360;10.958;2022-11-28T04:06:15;96007.84;;;1.27;100.00
56668;BME280;42542;48.360;10.958;2022-11-28T04:09:26;96009.44;;;1.29;100.00
56668;BME280;42542;48.360;10.958;2022-11-28T04:12:52;95998.75;;;1.31;100.00
56668;BME280;42542;48.360;10.958;2022-11-28T04:16:08;96008.22;;;1.33;100.00
56668;BME280;42542;48.360;10.958;2022-11-28T04:19:12;96011.59;;;1.35;100.00
56668;BME280;42542;48.360;10.958;2022-11-28T04:22:29;95996.50;;;1.37;100.00
56668;BME280;42542;48.360;10.958;2022-11-28T04:25:36;95998.94;;;1.40;100.00
56668;BME280;42542;48.360;10.958;2022-11-28T04:28:38;95995.34;;;1.41;100.00
56668;BME280;42542;48.360;10.958;2022-11-28T04:31:43;95999.69;;;1.42;100.00
56668;BME280;42542;48.360;10.958;2022-11-28T04:34:49;95997.66;;;1.46;100.00
56668;BME280;42542;48.360;10.958;2022-11-28T04:37:53;95988.91;;;1.45;100.00
56668;BME280;42542;48.360;10.958;2022-11-28T04:41:00;95986.41;;;1.44;100.00
56668;BME280;42542;48.360;10.958;2022-11-28T04:44:15;95982.69;;;1.46;100.00
56668;BME280;42542;48.360;10.958;2022-11-28T04:47:20;95993.13;;;1.48;100.00
56668;BME280;42542;48.360;10.958;2022-11-28T04:50:24;95973.94;;;1.46;100.00
56668;BME280;42542;48.360;10.958;2022-11-28T04:53:32;95966.03;;;1.46;100.00
56668;BME280;42542;48.360;10.958;2022-11-28T04:56:49;95969.50;;;1.46;100.00
56668;BME280;42542;48.360;10.958;2022-11-28T04:59:54;95964.25;;;1.46;100.00
56668;BME280;42542;48.360;10.958;2022-11-28T05:02:56;95943.75;;;1.39;100.00
56668;BME280;42542;48.360;10.958;2022-11-28T05:05:58;95951.44;;;1.42;100.00
56668;BME280;42542;48.360;10.958;2022-11-28T05:09:00;95964.34;;;1.45;100.00
56668;BME280;42542;48.360;10.958;2022-11-28T05:12:02;95950.13;;;1.47;100.00
56668;BME280;42542;48.360;10.958;2022-11-28T05:15:04;95930.25;;;1.43;100.00
56668;BME280;42542;48.360;10.958;2022-11-28T05:18:06;95922.56;;;1.40;100.00
56668;BME280;42542;48.360;10.958;2022-11-28T05:21:08;95910.34;;;1.39;100.00
56668;BME280;42542;48.360;10.958;2022-11-28T05:24:10;95902.81;;;1.35;100.00
56668;BME280;42542;48.360;10.958;2022-11-28T05:27:11;95895.84;;;1.34;100.00
56668;BME280;42542;48.360;10.958;2022-11-28T05:30:13;95887.13;;;1.33;100.00
56668;BME280;42542;48.360;10.958;2022-11-28T05:33:15;95864.47;;;1.31;100.00
56668;BME280;42542;48.360;10.958;2022-11-28T05:36:17;95867.34;;;1.28;100.00
56668;BME280;42542;48.360;10.958;2022-11-28T05:39:18;95893.56;;;1.29;100.00
56668;BME280;42542;48.360;10.958;2022-11-28T05:42:20;95927.06;;;1.27;100.00
56668;BME280;42542;48.360;10.958;2022-11-28T05:45:22;95925.66;;;1.34;100.00
56668;BME280;42542;48.360;10.958;2022-11-28T05:48:23;95900.06;;;1.36;100.00
56668;BME280;42542;48.360;10.958;2022-11-28T05:51:25;95896.59;;;1.36;100.00
56668;BME280;42542;48.360;10.958;2022-11-28T05:54:27;95889.75;;;1.33;100.00
56668;BME280;42542;48.360;10.958;2022-11-28T05:57:30;95915.72;;;1.38;100.00
56668;BME280;42542;48.360;10.958;2022-11-28T06:00:32;95928.56;;;1.42;100.00
56668;BME280;42542;48.360;10.958;2022-11-28T06:03:33;95914.09;;;1.48;100.00
56668;BME280;42542;48.360;10.958;2022-11-28T06:06:35;95890.19;;;1.51;100.00
56668;BME280;42542;48.360;10.958;2022-11-28T06:09:37;95898.91;;;1.51;100.00
56668;BME280;42542;48.360;10.958;2022-11-28T06:12:38;95916.38;;;1.52;100.00
56668;BME280;42542;48.360;10.958;2022-11-28T06:15:42;95914.00;;;1.49;100.00
56668;BME280;42542;48.360;10.958;2022-11-28T06:18:45;95913.75;;;1.52;100.00
56668;BME280;42542;48.360;10.958;2022-11-28T06:21:48;95908.38;;;1.54;100.00
56668;BME280;42542;48.360;10.958;2022-11-28T06:24:50;95925.75;;;1.56;100.00
56668;BME280;42542;48.360;10.958;2022-11-28T06:27:52;95936.88;;;1.60;100.00
56668;BME280;42542;48.360;10.958;2022-11-28T06:30:53;95929.22;;;1.57;100.00
56668;BME280;42542;48.360;10.958;2022-11-28T06:33:56;95920.03;;;1.63;100.00
56668;BME280;42542;48.360;10.958;2022-11-28T06:36:57;95920.25;;;1.60;100.00
56668;BME280;42542;48.360;10.958;2022-11-28T06:39:59;95940.47;;;1.59;100.00
56668;BME280;42542;48.360;10.958;2022-11-28T06:43:01;95929.81;;;1.61;100.00
56668;BME280;42542;48.360;10.958;2022-11-28T06:46:03;95900.63;;;1.64;100.00
56668;BME280;42542;48.360;10.958;2022-11-28T06:49:04;95924.56;;;1.61;100.00
56668;BME280;42542;48.360;10.958;2022-11-28T06:52:06;95955.22;;;1.62;100.00
56668;BME280;42542;48.360;10.958;2022-11-28T06:55:07;95957.00;;;1.61;100.00
56668;BME280;42542;48.360;10.958;2022-11-28T06:58:09;95964.81;;;1.63;100.00
56668;BME280;42542;48.360;10.958;2022-11-28T07:01:13;95960.28;;;1.65;100.00
56668;BME280;42542;48.360;10.958;2022-11-28T07:04:15;95953.91;;;1.67;100.00
56668;BME280;42542;48.360;10.958;2022-11-28T07:07:17;95950.22;;;1.70;100.00
56668;BME280;42542;48.360;10.958;2022-11-28T07:10:19;95944.84;;;1.71;100.00
56668;BME280;42542;48.360;10.958;2022-11-28T07:13:21;95934.31;;;1.71;100.00
56668;BME280;42542;48.360;10.958;2022-11-28T07:16:25;95928.41;;;1.68;100.00
56668;BME280;42542;48.360;10.958;2022-11-28T07:19:27;95938.84;;;1.69;100.00
56668;BME280;42542;48.360;10.958;2022-11-28T07:22:28;95931.03;;;1.68;100.00
56668;BME280;42542;48.360;10.958;2022-11-28T07:25:30;95919.94;;;1.75;100.00
56668;BME280;42542;48.360;10.958;2022-11-28T07:28:33;95935.00;;;1.73;100.00
56668;BME280;42542;48.360;10.958;2022-11-28T07:31:35;95927.09;;;1.73;100.00
56668;BME280;42542;48.360;10.958;2022-11-28T07:34:37;95905.22;;;1.73;100.00
56668;BME280;42542;48.360;10.958;2022-11-28T07:37:39;95904.13;;;1.75;100.00
56668;BME280;42542;48.360;10.958;2022-11-28T07:40:40;95910.00;;;1.79;100.00
56668;BME280;42542;48.360;10.958;2022-11-28T07:43:43;95909.88;;;1.80;100.00
56668;BME280;42542;48.360;10.958;2022-11-28T07:46:46;95904.50;;;1.82;100.00
56668;BME280;42542;48.360;10.958;2022-11-28T07:49:49;95916.59;;;1.84;100.00
56668;BME280;42542;48.360;10.958;2022-11-28T07:52:50;95909.44;;;1.86;100.00
56668;BME280;42542;48.360;10.958;2022-11-28T07:55:52;95901.16;;;1.91;100.00
56668;BME280;42542;48.360;10.958;2022-11-28T07:58:54;95907.06;;;1.94;100.00
56668;BME280;42542;48.360;10.958;2022-11-28T08:02:02;95905.97;;;1.97;100.00
56668;BME280;42542;48.360;10.958;2022-11-28T08:05:04;95898.16;;;1.95;100.00
56668;BME280;42542;48.360;10.958;2022-11-28T08:08:06;95904.53;;;1.93;100.00
56668;BME280;42542;48.360;10.958;2022-11-28T08:11:08;95903.59;;;1.94;100.00
56668;BME280;42542;48.360;10.958;2022-11-28T08:14:10;95901.78;;;1.94;100.00
56668;BME280;42542;48.360;10.958;2022-11-28T08:17:12;95897.22;;;1.96;100.00
56668;BME280;42542;48.360;10.958;2022-11-28T08:20:14;95896.38;;;1.96;100.00
56668;BME280;42542;48.360;10.958;2022-11-28T08:23:15;95898.06;;;1.97;100.00
56668;BME280;42542;48.360;10.958;2022-11-28T08:26:19;95893.53;;;1.99;100.00
56668;BME280;42542;48.360;10.958;2022-11-28T08:29:24;95908.28;;;2.02;100.00
56668;BME280;42542;48.360;10.958;2022-11-28T08:32:28;95896.63;;;2.04;100.00
56668;BME280;42542;48.360;10.958;2022-11-28T08:35:30;95897.72;;;2.02;100.00
56668;BME280;42542;48.360;10.958;2022-11-28T08:38:32;95901.78;;;2.06;100.00
56668;BME280;42542;48.360;10.958;2022-11-28T08:41:34;95911.13;;;2.10;100.00
56668;BME280;42542;48.360;10.958;2022-11-28T08:44:35;95898.44;;;2.15;100.00
56668;BME280;42542;48.360;10.958;2022-11-28T08:47:37;95900.13;;;2.16;100.00
56668;BME280;42542;48.360;10.958;2022-11-28T08:50:45;95904.56;;;2.26;100.00
56668;BME280;42542;48.360;10.958;2022-11-28T08:53:49;95906.03;;;2.30;100.00
56668;BME280;42542;48.360;10.958;2022-11-28T08:56:58;95908.28;;;2.35;100.00
56668;BME280;42542;48.360;10.958;2022-11-28T09:00:02;95891.84;;;2.31;100.00
56668;BME280;42542;48.360;10.958;2022-11-28T09:03:04;95911.88;;;2.45;100.00
56668;BME280;42542;48.360;10.958;2022-11-28T09:06:06;95911.75;;;2.47;100.00
56668;BME280;42542;48.360;10.958;2022-11-28T09:09:08;95913.06;;;2.52;100.00
56668;BME280;42542;48.360;10.958;2022-11-28T09:12:10;95912.00;;;2.55;100.00
56668;BME280;42542;48.360;10.958;2022-11-28T09:15:12;95916.09;;;2.59;100.00
56668;BME280;42542;48.360;10.958;2022-11-28T09:18:14;95913.44;;;2.59;100.00
56668;BME280;42542;48.360;10.958;2022-11-28T09:21:15;95918.72;;;2.59;100.00
56668;BME280;42542;48.360;10.958;2022-11-28T09:24:17;95909.00;;;2.59;100.00
56668;BME280;42542;48.360;10.958;2022-11-28T09:27:19;95911.41;;;2.62;100.00
56668;BME280;42542;48.360;10.958;2022-11-28T09:30:20;95917.41;;;2.64;100.00
56668;BME280;42542;48.360;10.958;2022-11-28T09:33:23;95913.53;;;2.68;100.00
56668;BME280;42542;48.360;10.958;2022-11-28T09:36:24;95909.72;;;2.72;100.00
56668;BME280;42542;48.360;10.958;2022-11-28T09:39:28;95908.50;;;2.77;100.00
56668;BME280;42542;48.360;10.958;2022-11-28T09:42:50;95906.47;;;2.80;100.00
56668;BME280;42542;48.360;10.958;2022-11-28T09:45:52;95915.69;;;2.86;100.00
56668;BME280;42542;48.360;10.958;2022-11-28T09:48:59;95910.03;;;2.90;100.00
56668;BME280;42542;48.360;10.958;2022-11-28T09:55:43;95916.28;;;3.00;100.00
56668;BME280;42542;48.360;10.958;2022-11-28T09:58:54;95916.59;;;3.07;100.00
56668;BME280;42542;48.360;10.958;2022-11-28T10:09:04;95902.16;;;3.22;100.00
56668;BME280;42542;48.360;10.958;2022-11-28T10:16:15;95911.16;;;3.31;100.00
56668;BME280;42542;48.360;10.958;2022-11-28T10:19:35;95904.63;;;3.35;100.00
56668;BME280;42542;48.360;10.958;2022-11-28T10:23:00;95909.41;;;3.41;100.00
56668;BME280;42542;48.360;10.958;2022-11-28T10:26:15;95910.03;;;3.44;99.31
56668;BME280;42542;48.360;10.958;2022-11-28T10:29:25;95906.16;;;3.48;99.40
56668;BME280;42542;48.360;10.958;2022-11-28T10:32:39;95910.59;;;3.48;99.21
56668;BME280;42542;48.360;10.958;2022-11-28T10:38:56;95910.69;;;3.58;99.54
56668;BME280;42542;48.360;10.958;2022-11-28T10:42:24;95911.41;;;3.60;98.54
56668;BME280;42542;48.360;10.958;2022-11-28T10:45:45;95910.16;;;3.64;99.67
56668;BME280;42542;48.360;10.958;2022-11-28T10:52:26;95894.75;;;3.69;98.78
56668;BME280;42542;48.360;10.958;2022-11-28T10:59:05;95891.75;;;3.73;98.78
56668;BME280;42542;48.360;10.958;2022-11-28T11:02:26;95887.03;;;3.77;98.95
56668;BME280;42542;48.360;10.958;2022-11-28T11:05:32;95889.88;;;3.85;98.06
56668;BME280;42542;48.360;10.958;2022-11-28T11:08:37;95888.66;;;3.89;98.47
56668;BME280;42542;48.360;10.958;2022-11-28T11:11:51;95884.91;;;3.91;98.03
56668;BME280;42542;48.360;10.958;2022-11-28T11:14:54;95882.00;;;3.95;97.79
56668;BME280;42542;48.360;10.958;2022-11-28T11:17:57;95892.91;;;4.01;98.19
56668;BME280;42542;48.360;10.958;2022-11-28T11:21:18;95881.69;;;4.09;98.35
56668;BME280;42542;48.360;10.958;2022-11-28T11:24:20;95883.78;;;4.15;98.51
56668;BME280;42542;48.360;10.958;2022-11-28T11:27:22;95879.91;;;4.19;97.60
56668;BME280;42542;48.360;10.958;2022-11-28T11:30:38;95882.44;;;4.20;97.37
56668;BME280;42542;48.360;10.958;2022-11-28T11:33:42;95872.28;;;4.25;97.36
56668;BME280;42542;48.360;10.958;2022-11-28T11:36:44;95874.41;;;4.31;97.58
56668;BME280;42542;48.360;10.958;2022-11-28T11:39:48;95884.34;;;4.39;97.29
56668;BME280;42542;48.360;10.958;2022-11-28T11:42:59;95889.94;;;4.46;97.25
56668;BME280;42542;48.360;10.958;2022-11-28T11:46:13;95882.31;;;4.52;97.61
56668;BME280;42542;48.360;10.958;2022-11-28T11:49:48;95872.41;;;4.54;96.55
56668;BME280;42542;48.360;10.958;2022-11-28T11:53:00;95871.06;;;4.60;96.71
56668;BME280;42542;48.360;10.958;2022-11-28T11:56:03;95865.47;;;4.63;96.43
56668;BME280;42542;48.360;10.958;2022-11-28T11:59:13;95869.38;;;4.68;96.57
56668;BME280;42542;48.360;10.958;2022-11-28T12:02:36;95858.78;;;4.68;95.58
56668;BME280;42542;48.360;10.958;2022-11-28T12:05:52;95863.41;;;4.66;95.35
56668;BME280;42542;48.360;10.958;2022-11-28T12:09:33;95863.28;;;4.68;95.46
56668;BME280;42542;48.360;10.958;2022-11-28T12:12:38;95863.00;;;4.71;95.23
56668;BME280;42542;48.360;10.958;2022-11-28T12:16:00;95861.19;;;4.71;95.24
56668;BME280;42542;48.360;10.958;2022-11-28T12:26:08;95861.78;;;4.75;95.46
56668;BME280;42542;48.360;10.958;2022-11-28T12:29:31;95858.00;;;4.78;95.56
56668;BME280;42542;48.360;10.958;2022-11-28T12:45:58;95855.13;;;5.00;96.32
56668;BME280;42542;48.360;10.958;2022-11-28T12:49:17;95855.69;;;5.03;96.32
56668;BME280;42542;48.360;10.958;2022-11-28T12:59:15;95851.09;;;5.05;94.62
56668;BME280;42542;48.360;10.958;2022-11-28T13:02:34;95839.09;;;5.01;95.56
56668;BME280;42542;48.360;10.958;2022-11-28T13:05:48;95847.47;;;5.06;94.79
56668;BME280;42542;48.360;10.958;2022-11-28T13:09:13;95846.50;;;5.07;95.20
56668;BME280;42542;48.360;10.958;2022-11-28T13:19:04;95843.28;;;5.14;95.39
56668;BME280;42542;48.360;10.958;2022-11-28T13:22:26;95841.34;;;5.16;95.10
56668;BME280;42542;48.360;10.958;2022-11-28T13:25:33;95843.16;;;5.15;95.33
56668;BME280;42542;48.360;10.958;2022-11-28T13:29:01;95836.47;;;5.11;94.89
56668;BME280;42542;48.360;10.958;2022-11-28T13:32:19;95840.78;;;5.12;95.16
56668;BME280;42542;48.360;10.958;2022-11-28T13:35:23;95842.06;;;5.18;95.23
56668;BME280;42542;48.360;10.958;2022-11-28T13:38:38;95838.28;;;5.20;95.12
56668;BME280;42542;48.360;10.958;2022-11-28T13:42:35;95835.50;;;5.22;94.59
56668;BME280;42542;48.360;10.958;2022-11-28T13:45:58;95839.94;;;5.21;94.43
56668;BME280;42542;48.360;10.958;2022-11-28T13:49:07;95831.03;;;5.22;95.22
56668;BME280;42542;48.360;10.958;2022-11-28T13:55:42;95834.38;;;5.34;94.90
56668;BME280;42542;48.360;10.958;2022-11-28T13:59:15;95836.03;;;5.35;93.94
56668;BME280;42542;48.360;10.958;2022-11-28T14:02:25;95827.25;;;5.34;94.13
56668;BME280;42542;48.360;10.958;2022-11-28T14:05:35;95832.16;;;5.39;94.32
56668;BME280;42542;48.360;10.958;2022-11-28T14:08:40;95829.34;;;5.40;94.57
56668;BME280;42542;48.360;10.958;2022-11-28T14:12:05;95825.59;;;5.43;94.71
56668;BME280;42542;48.360;10.958;2022-11-28T14:15:26;95826.44;;;5.43;95.07
56668;BME280;42542;48.360;10.958;2022-11-28T14:22:19;95827.69;;;5.39;94.18
56668;BME280;42542;48.360;10.958;2022-11-28T14:25:26;95818.91;;;5.39;94.00
56668;BME280;42542;48.360;10.958;2022-11-28T14:28:32;95822.53;;;5.38;94.05
56668;BME280;42542;48.360;10.958;2022-11-28T14:31:37;95822.41;;;5.39;93.76
56668;BME280;42542;48.360;10.958;2022-11-28T14:34:44;95820.59;;;5.40;94.24
56668;BME280;42542;48.360;10.958;2022-11-28T14:37:51;95823.06;;;5.41;94.31
56668;BME280;42542;48.360;10.958;2022-11-28T14:48:13;95828.94;;;5.45;95.31
56668;BME280;42542;48.360;10.958;2022-11-28T14:51:16;95815.81;;;5.43;95.45
56668;BME280;42542;48.360;10.958;2022-11-28T14:54:21;95834.38;;;5.43;95.50
56668;BME280;42542;48.360;10.958;2022-11-28T14:57:28;95837.28;;;5.40;95.34
56668;BME280;42542;48.360;10.958;2022-11-28T15:00:45;95831.59;;;5.35;95.32
56668;BME280;42542;48.360;10.958;2022-11-28T15:07:57;95833.53;;;5.33;95.35
56668;BME280;42542;48.360;10.958;2022-11-28T15:15:00;95838.41;;;5.28;95.68
56668;BME280;42542;48.360;10.958;2022-11-28T15:18:02;95836.75;;;5.27;96.29
56668;BME280;42542;48.360;10.958;2022-11-28T15:21:10;95831.88;;;5.23;96.29
56668;BME280;42542;48.360;10.958;2022-11-28T15:27:27;95830.06;;;5.23;96.73
56668;BME280;42542;48.360;10.958;2022-11-28T15:30:31;95825.72;;;5.22;96.99
56668;BME280;42542;48.360;10.958;2022-11-28T15:33:33;95838.28;;;5.20;96.82
56668;BME280;42542;48.360;10.958;2022-11-28T15:36:37;95834.09;;;5.18;97.22
56668;BME280;42542;48.360;10.958;2022-11-28T15:39:40;95832.44;;;5.17;97.43
56668;BME280;42542;48.360;10.958;2022-11-28T15:42:42;95837.03;;;5.15;97.11
56668;BME280;42542;48.360;10.958;2022-11-28T15:46:00;95839.81;;;5.13;97.19
56668;BME280;42542;48.360;10.958;2022-11-28T15:49:02;95833.97;;;5.09;97.37
56668;BME280;42542;48.360;10.958;2022-11-28T15:52:06;95843.84;;;5.07;97.35
56668;BME280;42542;48.360;10.958;2022-11-28T15:55:15;95834.34;;;5.05;97.72
56668;BME280;42542;48.360;10.958;2022-11-28T15:58:24;95829.06;;;5.05;98.02
56668;BME280;42542;48.360;10.958;2022-11-28T16:01:33;95838.13;;;5.02;98.08
56668;BME280;42542;48.360;10.958;2022-11-28T16:04:36;95827.78;;;4.99;97.78
56668;BME280;42542;48.360;10.958;2022-11-28T16:07:41;95818.59;;;4.94;98.50
56668;BME280;42542;48.360;10.958;2022-11-28T16:10:43;95829.91;;;4.96;98.07
56668;BME280;42542;48.360;10.958;2022-11-28T16:13:46;95820.16;;;4.96;98.30
56668;BME280;42542;48.360;10.958;2022-11-28T16:16:48;95824.72;;;4.94;98.19
56668;BME280;42542;48.360;10.958;2022-11-28T16:19:51;95825.69;;;4.93;98.26
56668;BME280;42542;48.360;10.958;2022-11-28T16:22:58;95825.28;;;4.88;98.32
56668;BME280;42542;48.360;10.958;2022-11-28T16:29:32;95819.69;;;4.91;98.97
56668;BME280;42542;48.360;10.958;2022-11-28T16:32:39;95824.88;;;4.93;99.63
56668;BME280;42542;48.360;10.958;2022-11-28T16:35:42;95823.88;;;4.94;99.33
56668;BME280;42542;48.360;10.958;2022-11-28T16:38:46;95819.56;;;4.93;99.34
56668;BME280;42542;48.360;10.958;2022-11-28T16:41:51;95821.25;;;4.94;99.08
56668;BME280;42542;48.360;10.958;2022-11-28T16:44:55;95815.09;;;4.93;99.05
56668;BME280;42542;48.360;10.958;2022-11-28T16:48:08;95819.56;;;4.93;98.84
56668;BME280;42542;48.360;10.958;2022-11-28T16:54:26;95821.38;;;4.92;99.20
56668;BME280;42542;48.360;10.958;2022-11-28T16:57:46;95820.66;;;4.90;99.27
56668;BME280;42542;48.360;10.958;2022-11-28T17:00:59;95821.66;;;4.89;99.27
56668;BME280;42542;48.360;10.958;2022-11-28T17:04:02;95816.38;;;4.89;99.54
56668;BME280;42542;48.360;10.958;2022-11-28T17:07:05;95820.81;;;4.89;99.40
56668;BME280;42542;48.360;10.958;2022-11-28T17:10:11;95820.13;;;4.87;99.32
56668;BME280;42542;48.360;10.958;2022-11-28T17:13:13;95822.75;;;4.87;99.35
56668;BME280;42542;48.360;10.958;2022-11-28T17:16:22;95820.25;;;4.85;99.39
56668;BME280;42542;48.360;10.958;2022-11-28T17:19:24;95822.34;;;4.82;99.65
56668;BME280;42542;48.360;10.958;2022-11-28T17:22:32;95819.53;;;4.83;99.62
56668;BME280;42542;48.360;10.958;2022-11-28T17:25:41;95813.41;;;4.83;99.93
56668;BME280;42542;48.360;10.958;2022-11-28T17:28:42;95816.22;;;4.81;99.65
56668;BME280;42542;48.360;10.958;2022-11-28T17:31:45;95814.66;;;4.79;99.64
56668;BME280;42542;48.360;10.958;2022-11-28T17:34:47;95813.28;;;4.75;99.45
56668;BME280;42542;48.360;10.958;2022-11-28T17:37:49;95825.50;;;4.76;100.00
56668;BME280;42542;48.360;10.958;2022-11-28T17:40:51;95824.84;;;4.74;99.98
56668;BME280;42542;48.360;10.958;2022-11-28T17:43:52;95823.16;;;4.72;99.85
56668;BME280;42542;48.360;10.958;2022-11-28T17:46:55;95831.94;;;4.73;99.50
56668;BME280;42542;48.360;10.958;2022-11-28T17:49:57;95823.28;;;4.71;99.39
56668;BME280;42542;48.360;10.958;2022-11-28T17:52:59;95821.72;;;4.68;99.68
56668;BME280;42542;48.360;10.958;2022-11-28T17:56:01;95824.97;;;4.72;100.00
56668;BME280;42542;48.360;10.958;2022-11-28T17:59:03;95824.00;;;4.73;100.00
56668;BME280;42542;48.360;10.958;2022-11-28T18:02:05;95830.25;;;4.72;100.00
56668;BME280;42542;48.360;10.958;2022-11-28T18:05:08;95829.41;;;4.71;100.00
56668;BME280;42542;48.360;10.958;2022-11-28T18:08:13;95835.69;;;4.70;99.85
56668;BME280;42542;48.360;10.958;2022-11-28T18:11:22;95838.31;;;4.70;100.00
56668;BME280;42542;48.360;10.958;2022-11-28T18:14:23;95834.84;;;4.70;99.99
56668;BME280;42542;48.360;10.958;2022-11-28T18:17:25;95825.78;;;4.63;100.00
56668;BME280;42542;48.360;10.958;2022-11-28T18:20:26;95828.41;;;4.63;99.89